Time;durP1;ratioP1;P1;durP2;ratioP2;P2;SDS_P1;SDS_P2;PMS_P1;PMS_P2;Temp;Humidity;BMP_temperature;BMP_pressure;BME280_temperature;BME280_humidity;BME280_pressure;Samples;Min_cycle;Max_cycle;Signal;HPM_P1;HPM_P2
2022/11/29 00:01:35;;;;;;;3.30;2.87;;;10.00;99.90;;;;;;5090698;28;20242;-75
2022/11/29 00:04:03;;;;;;;4.33;2.80;;;10.00;99.90;;;;;;5089173;28;20184;-75
2022/11/29 00:06:31;;;;;;;4.23;2.57;;;10.00;99.90;;;;;;5086443;28;20213;-73
2022/11/29 00:09:07;;;;;;;3.20;2.60;;;10.10;99.90;;;;;;5092492;28;20185;-75
2022/11/29 00:14:29;;;;;;;3.00;2.23;;;10.00;99.90;;;;;;5078202;28;20187;-76
2022/11/29 00:17:03;;;;;;;4.43;2.63;;;10.00;99.90;;;;;;5092315;28;20173;-75
2022/11/29 00:19:35;;;;;;;3.87;2.30;;;10.00;99.90;;;;;;5088885;28;20173;-76
2022/11/29 00:22:02;;;;;;;3.53;2.43;;;10.00;99.90;;;;;;5088620;28;20172;-76
2022/11/29 00:24:30;;;;;;;3.60;2.53;;;9.90;99.90;;;;;;5057772;28;20184;-75
2022/11/29 00:26:55;;;;;;;3.90;2.30;;;10.00;99.90;;;;;;5093083;28;20169;-76
2022/11/29 00:29:23;;;;;;;4.63;2.53;;;10.00;99.90;;;;;;5092974;28;20237;-76
2022/11/29 00:31:49;;;;;;;3.53;2.60;;;10.00;99.90;;;;;;5088153;28;20206;-76
2022/11/29 00:34:14;;;;;;;3.23;2.50;;;10.00;99.90;;;;;;5091808;28;20173;-73
2022/11/29 00:36:40;;;;;;;5.50;2.83;;;10.00;99.90;;;;;;5094107;28;20334;-75
2022/11/29 00:39:06;;;;;;;3.27;2.30;;;9.90;99.90;;;;;;5095847;28;20258;-74
2022/11/29 00:41:32;;;;;;;4.37;2.70;;;10.00;99.90;;;;;;5060294;28;20208;-75
2022/11/29 00:44:00;;;;;;;3.20;2.60;;;10.00;99.90;;;;;;5096742;28;20177;-74
2022/11/29 00:46:25;;;;;;;2.95;2.47;;;10.10;99.90;;;;;;5096024;28;20193;-74
2022/11/29 00:48:51;;;;;;;4.37;2.53;;;10.00;99.90;;;;;;5094854;28;20190;-75
2022/11/29 00:51:19;;;;;;;3.43;2.40;;;10.10;99.90;;;;;;5062172;28;20191;-76
2022/11/29 00:53:44;;;;;;;4.67;2.47;;;10.10;99.90;;;;;;5094304;28;20256;-75
2022/11/29 00:56:10;;;;;;;3.53;2.50;;;10.10;99.90;;;;;;5099901;28;20244;-75
2022/11/29 00:58:36;;;;;;;3.27;2.27;;;10.10;99.90;;;;;;5103937;28;20212;-75
2022/11/29 01:01:02;;;;;;;4.23;2.43;;;10.10;99.90;;;;;;5097839;28;20181;-75
2022/11/29 01:03:30;;;;;;;4.60;2.70;;;10.10;99.90;;;;;;5063866;28;20173;-75
2022/11/29 01:06:07;;;;;;;3.63;2.27;;;10.10;99.90;;;;;;5098988;28;20192;-74
2022/11/29 01:08:33;;;;;;;4.57;2.50;;;10.10;99.90;;;;;;5098345;28;20196;-76
2022/11/29 01:11:15;;;;;;;5.70;2.45;;;10.20;99.90;;;;;;5066867;28;20186;-74
2022/11/29 01:13:41;;;;;;;3.50;1.93;;;10.10;99.90;;;;;;5099068;28;20181;-76
2022/11/29 01:16:13;;;;;;;5.53;2.43;;;10.20;99.90;;;;;;5098221;28;20191;-74
2022/11/29 01:18:38;;;;;;;4.33;2.50;;;10.10;99.90;;;;;;5095259;28;20215;-75
2022/11/29 01:21:11;;;;;;;3.37;2.13;;;10.10;99.90;;;;;;5097421;28;20447;-75
2022/11/29 01:23:42;;;;;;;3.53;2.40;;;10.20;99.90;;;;;;5060575;28;20184;-75
2022/11/29 01:26:17;;;;;;;2.77;2.27;;;10.10;99.90;;;;;;5062651;28;20204;-76
2022/11/29 01:28:45;;;;;;;3.27;2.17;;;10.10;99.90;;;;;;5092827;28;20184;-74
2022/11/29 01:31:19;;;;;;;6.27;2.67;;;10.10;99.90;;;;;;5063236;28;20176;-74
2022/11/29 01:33:46;;;;;;;5.20;2.30;;;10.10;99.90;;;;;;5096646;28;20196;-76
2022/11/29 01:36:14;;;;;;;4.27;2.17;;;10.00;99.90;;;;;;5062558;28;20184;-76
2022/11/29 01:38:46;;;;;;;6.03;2.43;;;10.00;99.90;;;;;;5097854;28;20189;-75
2022/11/29 01:41:17;;;;;;;3.87;2.47;;;10.00;99.90;;;;;;5093714;28;20283;-76
2022/11/29 01:43:53;;;;;;;5.13;2.47;;;10.00;99.90;;;;;;5093935;28;20267;-76
2022/11/29 01:46:19;;;;;;;4.93;2.20;;;10.00;99.90;;;;;;5060716;28;20199;-75
2022/11/29 01:48:47;;;;;;;3.70;2.00;;;10.00;99.90;;;;;;5095560;28;20234;-75
2022/11/29 01:51:16;;;;;;;4.50;2.13;;;10.00;99.90;;;;;;5093973;28;20210;-76
2022/11/29 01:53:41;;;;;;;3.83;2.33;;;10.00;99.90;;;;;;5099473;28;20188;-75
2022/11/29 01:56:08;;;;;;;3.90;2.27;;;10.00;99.90;;;;;;5069704;28;20192;-75
2022/11/29 01:58:36;;;;;;;4.13;2.03;;;10.00;99.90;;;;;;5100305;28;20187;-74
2022/11/29 02:01:04;;;;;;;4.37;2.47;;;10.10;99.90;;;;;;5096813;28;20951;-75
2022/11/29 02:03:30;;;;;;;3.60;2.17;;;10.00;99.90;;;;;;5100169;28;20185;-75
2022/11/29 02:05:55;;;;;;;3.17;1.90;;;10.00;99.90;;;;;;5099261;28;20211;-75
2022/11/29 02:08:30;;;;;;;2.92;2.10;;;10.10;99.90;;;;;;5093710;28;20177;-75
2022/11/29 02:11:14;;;;;;;4.57;2.10;;;10.00;99.90;;;;;;5062565;28;20184;-75
2022/11/29 02:13:57;;;;;;;4.53;2.10;;;10.00;99.90;;;;;;5092328;28;20180;-75
2022/11/29 02:16:56;;;;;;;5.13;2.10;;;10.00;99.90;;;;;;5059367;28;20200;-76
2022/11/29 02:20:07;;;;;;;3.67;2.03;;;10.00;99.90;;;;;;5061003;28;20336;-75
2022/11/29 02:22:51;;;;;;;5.03;2.27;;;10.00;99.90;;;;;;5029026;28;20192;-76
2022/11/29 02:25:28;;;;;;;4.90;2.47;;;10.00;99.90;;;;;;5090132;28;20208;-74
2022/11/29 02:28:31;;;;;;;4.80;2.03;;;10.00;99.90;;;;;;5059618;28;20206;-76
2022/11/29 02:31:33;;;;;;;3.60;2.20;;;10.00;99.90;;;;;;5061603;28;20201;-76
2022/11/29 02:34:05;;;;;;;3.87;2.43;;;10.00;99.90;;;;;;5058717;28;20180;-75
2022/11/29 02:36:48;;;;;;;4.83;2.17;;;10.00;99.90;;;;;;5093912;28;20311;-76
2022/11/29 02:39:29;;;;;;;5.23;2.60;;;10.00;99.90;;;;;;5093154;28;20184;-74
2022/11/29 02:42:03;;;;;;;5.37;2.97;;;10.00;99.90;;;;;;5090058;28;20251;-75
2022/11/29 02:44:53;;;;;;;5.83;2.57;;;10.00;99.90;;;;;;5092986;28;20187;-75
2022/11/29 02:47:37;;;;;;;4.67;2.20;;;9.90;99.90;;;;;;5091524;28;20173;-75
2022/11/29 02:50:22;;;;;;;4.43;2.57;;;9.90;99.90;;;;;;5058635;28;20214;-76
2022/11/29 02:53:39;;;;;;;4.03;2.27;;;9.90;99.90;;;;;;5094005;28;20234;-76
2022/11/29 02:56:19;;;;;;;4.57;2.37;;;9.90;99.90;;;;;;5019748;28;20203;-75
2022/11/29 02:59:08;;;;;;;7.87;2.93;;;9.90;99.90;;;;;;5089832;28;20209;-75
2022/11/29 03:01:39;;;;;;;4.73;2.53;;;9.80;99.90;;;;;;5057831;28;20192;-76
2022/11/29 03:04:36;;;;;;;7.23;2.63;;;9.90;99.90;;;;;;5057697;28;20184;-73
2022/11/29 03:07:19;;;;;;;3.67;2.07;;;9.90;99.90;;;;;;5092842;28;20188;-75
2022/11/29 03:10:07;;;;;;;4.43;2.73;;;9.90;99.90;;;;;;5064290;28;20184;-76
2022/11/29 03:12:49;;;;;;;5.83;2.50;;;9.90;99.90;;;;;;5049794;28;20193;-74
2022/11/29 03:15:43;;;;;;;6.57;2.80;;;9.90;99.90;;;;;;5059378;28;20279;-74
2022/11/29 03:18:27;;;;;;;7.13;2.70;;;9.90;99.90;;;;;;5094668;28;20191;-75
2022/11/29 03:21:18;;;;;;;4.27;2.30;;;9.90;99.90;;;;;;5091471;28;20172;-76
2022/11/29 03:23:57;;;;;;;5.30;2.50;;;9.90;99.90;;;;;;5089604;28;20464;-76
2022/11/29 03:26:34;;;;;;;3.83;2.57;;;10.00;99.90;;;;;;5091297;28;20207;-75
2022/11/29 03:29:28;;;;;;;4.23;2.60;;;9.90;99.90;;;;;;5094472;28;20245;-76
2022/11/29 03:32:03;;;;;;;6.33;2.70;;;9.90;99.90;;;;;;5095323;28;20221;-73
2022/11/29 03:34:49;;;;;;;5.97;3.03;;;9.90;99.90;;;;;;5093856;28;20255;-75
2022/11/29 03:37:26;;;;;;;5.37;2.77;;;9.90;99.90;;;;;;5061504;28;20176;-77
2022/11/29 03:40:13;;;;;;;5.70;2.83;;;9.90;99.90;;;;;;5057851;28;20180;-74
2022/11/29 03:42:42;;;;;;;8.60;2.80;;;10.00;99.90;;;;;;5055474;28;20205;-75
2022/11/29 03:45:17;;;;;;;5.73;2.80;;;10.00;99.90;;;;;;5057022;28;20241;-74
2022/11/29 03:48:14;;;;;;;5.67;2.80;;;10.00;99.90;;;;;;5092406;28;20180;-76
2022/11/29 03:50:58;;;;;;;8.35;3.08;;;10.00;99.90;;;;;;5093989;28;20190;-76
2022/11/29 03:54:02;;;;;;;10.57;3.90;;;10.00;99.90;;;;;;5056428;28;20291;-76
2022/11/29 03:56:37;;;;;;;5.70;3.03;;;10.00;99.90;;;;;;5052742;28;20184;-75
2022/11/29 03:59:24;;;;;;;5.40;3.03;;;10.00;99.90;;;;;;5093537;28;20282;-74
2022/11/29 04:02:05;;;;;;;8.47;3.77;;;10.00;99.90;;;;;;5059591;28;20260;-74
2022/11/29 04:05:03;;;;;;;7.20;3.50;;;10.00;99.90;;;;;;5093346;28;20193;-75
2022/11/29 04:07:46;;;;;;;6.77;3.10;;;10.10;99.90;;;;;;5094649;28;20192;-75
2022/11/29 04:10:26;;;;;;;5.17;3.50;;;10.10;99.90;;;;;;5060249;28;20176;-75
2022/11/29 04:13:33;;;;;;;6.32;3.50;;;10.10;99.90;;;;;;5063943;28;20179;-75
2022/11/29 04:16:09;;;;;;;6.43;3.63;;;10.10;99.90;;;;;;5054210;28;20189;-73
2022/11/29 04:19:03;;;;;;;6.97;3.97;;;10.10;99.90;;;;;;5060045;28;20184;-75
2022/11/29 04:21:43;;;;;;;6.47;3.55;;;10.20;99.90;;;;;;5094395;28;20262;-75
2022/11/29 04:24:27;;;;;;;6.53;4.30;;;10.20;99.90;;;;;;5091071;28;20188;-75
2022/11/29 04:27:04;;;;;;;13.90;4.83;;;10.20;99.90;;;;;;5061265;28;20184;-75
2022/11/29 04:30:03;;;;;;;8.10;3.90;;;10.20;99.90;;;;;;5094701;28;20199;-75
2022/11/29 04:32:49;;;;;;;11.80;4.47;;;10.20;99.90;;;;;;5094570;28;20181;-75
2022/11/29 04:35:49;;;;;;;10.98;5.00;;;10.20;99.90;;;;;;5098608;28;20187;-75
2022/11/29 04:38:20;;;;;;;10.97;4.73;;;10.20;99.90;;;;;;5096581;28;20184;-76
2022/11/29 04:41:22;;;;;;;10.63;4.88;;;10.30;99.90;;;;;;5062964;28;20176;-75
2022/11/29 04:43:53;;;;;;;15.40;5.90;;;10.30;99.90;;;;;;5095825;28;20184;-75
2022/11/29 04:46:39;;;;;;;11.45;5.13;;;10.30;99.90;;;;;;5093721;28;20201;-75
2022/11/29 04:49:19;;;;;;;10.90;5.70;;;10.30;99.90;;;;;;5093154;28;20173;-75
2022/11/29 04:52:04;;;;;;;8.90;5.40;;;10.30;99.90;;;;;;5095569;28;20257;-75
2022/11/29 04:54:46;;;;;;;12.53;5.70;;;10.40;99.90;;;;;;5092411;28;20181;-75
2022/11/29 04:57:24;;;;;;;10.60;5.80;;;10.40;99.90;;;;;;5093028;28;20184;-75
2022/11/29 05:00:08;;;;;;;15.25;6.25;;;10.40;99.90;;;;;;5062404;28;20219;-77
2022/11/29 05:02:56;;;;;;;14.60;6.03;;;10.40;99.90;;;;;;5062858;28;20172;-74
2022/11/29 05:05:53;;;;;;;12.38;5.78;;;10.40;99.90;;;;;;5094065;28;20202;-75
2022/11/29 05:08:32;;;;;;;15.82;6.60;;;10.40;99.90;;;;;;5059052;28;20252;-75
2022/11/29 05:11:42;;;;;;;14.63;5.90;;;10.40;99.90;;;;;;5094742;28;20191;-74
2022/11/29 05:14:32;;;;;;;14.65;6.30;;;10.40;99.90;;;;;;5061514;28;20211;-75
2022/11/29 05:17:22;;;;;;;13.25;6.82;;;10.40;99.90;;;;;;5093776;28;20188;-74
2022/11/29 05:20:06;;;;;;;13.05;6.63;;;10.40;99.90;;;;;;5078281;28;20191;-75
2022/11/29 05:22:32;;;;;;;18.55;7.60;;;10.40;99.90;;;;;;5060464;28;20184;-74
2022/11/29 05:25:01;;;;;;;16.55;7.78;;;10.40;99.90;;;;;;5061319;28;20200;-75
2022/11/29 05:28:10;;;;;;;17.03;8.30;;;10.40;99.90;;;;;;5069783;28;20191;-74
2022/11/29 05:31:03;;;;;;;16.73;8.37;;;10.40;99.90;;;;;;5059755;28;20212;-75
2022/11/29 05:33:47;;;;;;;17.00;7.73;;;10.40;99.90;;;;;;5061071;28;20198;-75
2022/11/29 05:36:39;;;;;;;15.97;8.43;;;10.40;99.90;;;;;;5095786;28;20191;-75
2022/11/29 05:40:04;;;;;;;14.40;7.88;;;10.40;99.90;;;;;;5093803;28;20188;-76
2022/11/29 05:42:44;;;;;;;15.13;8.32;;;10.40;99.90;;;;;;5019471;28;20260;-77
2022/11/29 05:45:31;;;;;;;15.37;8.77;;;10.40;99.90;;;;;;5076364;28;20192;-75
2022/11/29 05:48:13;;;;;;;14.23;8.55;;;10.40;99.90;;;;;;5076251;28;20180;-75
2022/11/29 05:50:50;;;;;;;15.23;8.30;;;10.30;99.90;;;;;;5060464;28;20412;-75
2022/11/29 05:54:02;;;;;;;19.63;10.13;;;10.30;99.90;;;;;;5080813;28;20210;-76
2022/11/29 05:56:47;;;;;;;17.73;9.90;;;10.30;99.90;;;;;;5017841;28;20194;-76
2022/11/29 05:59:18;;;;;;;16.27;9.70;;;10.30;99.90;;;;;;5074855;28;20213;-76
2022/11/29 06:02:14;;;;;;;17.03;10.07;;;10.30;99.90;;;;;;5094985;28;20188;-76
2022/11/29 06:05:02;;;;;;;19.47;9.60;;;10.30;99.90;;;;;;5063016;28;20215;-74
2022/11/29 06:08:09;;;;;;;18.63;9.93;;;10.30;99.90;;;;;;5093193;28;20185;-74
2022/11/29 06:10:50;;;;;;;15.93;8.57;;;10.30;99.90;;;;;;5031589;28;20182;-75
2022/11/29 06:13:28;;;;;;;18.55;9.88;;;10.30;99.90;;;;;;5052800;28;20209;-75
2022/11/29 06:16:09;;;;;;;19.45;10.80;;;10.30;99.90;;;;;;5093756;28;20184;-73
2022/11/29 06:18:35;;;;;;;16.88;9.70;;;10.30;99.90;;;;;;5059305;28;20181;-74
2022/11/29 06:21:21;;;;;;;18.93;10.07;;;10.30;99.90;;;;;;5095152;28;20237;-74
2022/11/29 06:24:28;;;;;;;21.07;11.20;;;10.30;99.90;;;;;;5059183;28;20192;-74
2022/11/29 06:27:28;;;;;;;23.93;11.53;;;10.30;99.90;;;;;;5027752;28;20188;-73
2022/11/29 06:30:08;;;;;;;19.40;10.03;;;10.30;99.90;;;;;;5078004;28;20391;-74
2022/11/29 06:32:44;;;;;;;22.03;10.67;;;10.20;99.90;;;;;;5054640;28;20197;-74
2022/11/29 06:35:47;;;;;;;23.20;10.93;;;10.20;99.90;;;;;;5093909;28;20188;-75
2022/11/29 06:38:23;;;;;;;20.63;10.47;;;10.10;99.90;;;;;;5091338;28;20277;-76
2022/11/29 06:40:49;;;;;;;21.77;11.40;;;10.10;99.90;;;;;;5057502;28;20965;-76
2022/11/29 06:43:16;;;;;;;24.23;11.60;;;10.00;99.90;;;;;;5075483;28;20189;-76
2022/11/29 06:45:51;;;;;;;26.33;11.83;;;10.00;99.90;;;;;;5093462;28;20192;-76
2022/11/29 06:48:26;;;;;;;24.37;11.40;;;9.90;99.90;;;;;;5076760;28;21044;-76
2022/11/29 06:51:16;;;;;;;22.57;10.83;;;10.00;99.90;;;;;;5059142;28;20187;-76
2022/11/29 06:53:41;;;;;;;20.63;10.73;;;9.90;99.90;;;;;;5092557;28;20209;-77
2022/11/29 06:56:26;;;;;;;23.07;11.80;;;9.90;99.90;;;;;;5059145;28;20192;-76
2022/11/29 06:58:54;;;;;;;24.63;11.50;;;9.90;99.90;;;;;;5059720;28;20180;-77
2022/11/29 07:01:31;;;;;;;22.37;11.40;;;9.90;99.90;;;;;;5059296;28;20187;-77
2022/11/29 07:04:32;;;;;;;26.33;10.80;;;9.90;99.90;;;;;;5058124;28;20240;-77
2022/11/29 07:07:01;;;;;;;21.80;10.90;;;9.90;99.90;;;;;;5028627;28;20340;-78
2022/11/29 07:09:35;;;;;;;17.17;10.03;;;9.90;99.90;;;;;;5057356;28;20283;-77
2022/11/29 07:12:03;;;;;;;21.13;10.80;;;9.90;99.90;;;;;;5093155;28;20224;-78
2022/11/29 07:14:29;;;;;;;19.70;10.00;;;9.90;99.90;;;;;;5090629;28;20233;-77
2022/11/29 07:17:15;;;;;;;23.17;12.23;;;9.90;99.90;;;;;;5090546;28;20180;-76
2022/11/29 07:19:47;;;;;;;23.60;11.60;;;9.90;99.90;;;;;;5058813;28;20196;-76
2022/11/29 07:22:59;;;;;;;20.13;10.67;;;9.90;99.90;;;;;;5061252;28;20511;-77
2022/11/29 07:25:46;;;;;;;20.33;10.10;;;9.90;99.90;;;;;;5077548;28;20290;-76
2022/11/29 07:28:42;;;;;;;19.80;11.03;;;9.90;99.90;;;;;;5093851;28;20180;-77
2022/11/29 07:31:16;;;;;;;20.07;10.03;;;9.90;99.90;;;;;;5058158;28;20267;-76
2022/11/29 07:33:51;;;;;;;23.93;11.27;;;9.90;99.90;;;;;;5057394;28;20173;-77
2022/11/29 07:36:54;;;;;;;23.00;11.03;;;9.90;99.90;;;;;;5063265;28;20180;-77
2022/11/29 07:39:29;;;;;;;21.43;10.73;;;9.90;99.90;;;;;;5089817;28;20233;-79
2022/11/29 07:42:08;;;;;;;20.80;10.70;;;9.90;99.90;;;;;;5055476;28;20188;-70
2022/11/29 07:45:02;;;;;;;20.47;10.73;;;9.90;99.90;;;;;;5060364;28;20201;-77
2022/11/29 07:47:29;;;;;;;21.40;11.00;;;9.90;99.90;;;;;;5080380;28;20296;-74
2022/11/29 07:49:55;;;;;;;24.00;12.67;;;9.90;99.90;;;;;;5060838;28;20283;-83
2022/11/29 07:52:21;;;;;;;22.13;11.93;;;9.90;99.90;;;;;;5092127;28;20200;-79
2022/11/29 07:54:46;;;;;;;25.10;12.48;;;9.90;99.90;;;;;;5095952;28;20214;-78
2022/11/29 07:57:17;;;;;;;26.57;13.03;;;10.00;99.90;;;;;;5065285;28;20203;-80
2022/11/29 07:59:42;;;;;;;25.73;12.70;;;9.90;99.90;;;;;;5062508;28;20265;-80
2022/11/29 08:02:10;;;;;;;28.70;13.27;;;9.90;99.90;;;;;;5062780;28;20244;-83
2022/11/29 08:04:42;;;;;;;29.87;14.40;;;10.00;99.90;;;;;;5090506;28;20199;-78
2022/11/29 08:07:08;;;;;;;32.83;14.23;;;9.90;99.90;;;;;;5099553;28;20180;-82
2022/11/29 08:09:36;;;;;;;31.83;14.40;;;9.90;99.90;;;;;;5094221;28;20200;-81
2022/11/29 08:12:05;;;;;;;25.93;13.63;;;9.90;99.90;;;;;;5097971;28;20191;-83
2022/11/29 08:14:33;;;;;;;35.47;14.15;;;9.90;99.90;;;;;;5096907;28;20267;-81
2022/11/29 08:17:01;;;;;;;35.28;15.25;;;9.90;99.90;;;;;;5098466;28;20268;-81
2022/11/29 08:19:29;;;;;;;32.30;15.27;;;10.00;99.90;;;;;;5094594;28;20189;-80
2022/11/29 08:21:54;;;;;;;35.40;15.83;;;9.90;99.90;;;;;;5093887;28;20200;-80
2022/11/29 08:24:20;;;;;;;39.83;16.87;;;9.90;99.90;;;;;;5096068;28;20226;-78
2022/11/29 08:26:46;;;;;;;35.97;16.70;;;9.90;99.90;;;;;;5061694;28;20195;-73
2022/11/29 08:29:14;;;;;;;36.40;16.17;;;9.90;99.90;;;;;;5063692;28;20196;-77
2022/11/29 08:31:42;;;;;;;39.87;18.57;;;10.00;99.90;;;;;;5080759;28;20180;-79
2022/11/29 08:34:10;;;;;;;39.03;17.30;;;10.00;99.90;;;;;;5096241;28;20182;-82
2022/11/29 08:36:36;;;;;;;39.23;17.17;;;9.90;99.90;;;;;;5062558;28;20177;-79
2022/11/29 08:39:05;;;;;;;38.17;16.63;;;10.00;99.90;;;;;;5090840;28;20191;-83
2022/11/29 08:41:30;;;;;;;36.97;17.10;;;10.00;99.90;;;;;;5098263;28;20192;-75
2022/11/29 08:43:56;;;;;;;36.95;16.83;;;10.00;99.90;;;;;;5060358;28;20192;-84
2022/11/29 08:47:34;;;;;;;38.37;17.70;;;10.00;99.90;;;;;;5077450;28;20207;-82
2022/11/29 08:49:07;;;;;;;36.20;17.30;;;10.00;99.90;;;;;;5079319;28;20168;-80
2022/11/29 08:51:35;;;;;;;35.33;15.20;;;10.00;99.90;;;;;;5101747;28;20177;-79
2022/11/29 08:54:03;;;;;;;33.40;15.17;;;10.00;99.90;;;;;;5095867;28;20262;-79
2022/11/29 08:56:29;;;;;;;32.53;14.57;;;10.10;99.90;;;;;;5102315;28;20187;-80
2022/11/29 08:58:54;;;;;;;30.77;14.63;;;10.10;99.90;;;;;;5094513;28;20184;-80
2022/11/29 09:01:22;;;;;;;34.60;15.27;;;10.10;99.90;;;;;;5064556;28;20318;-81
2022/11/29 09:04:09;;;;;;;35.83;16.10;;;10.10;99.90;;;;;;5061842;28;20180;-80
2022/11/29 09:06:40;;;;;;;31.95;15.82;;;10.20;99.90;;;;;;5093513;28;20266;-81
2022/11/29 09:09:06;;;;;;;36.45;15.88;;;10.20;99.90;;;;;;5060269;28;20262;-82
2022/11/29 09:11:33;;;;;;;36.13;16.90;;;10.20;99.90;;;;;;5098281;28;20188;-83
2022/11/29 09:14:05;;;;;;;37.07;16.50;;;10.20;99.90;;;;;;5093551;28;20234;-81
2022/11/29 09:16:36;;;;;;;35.13;16.63;;;10.30;99.90;;;;;;5100392;28;20204;-80
2022/11/29 09:19:03;;;;;;;37.07;16.93;;;10.20;99.90;;;;;;5063912;28;20193;-78
2022/11/29 09:21:31;;;;;;;35.65;15.82;;;10.30;99.90;;;;;;5095817;28;20306;-81
2022/11/29 09:23:59;;;;;;;33.33;15.52;;;10.30;99.90;;;;;;5058705;28;20184;-81
2022/11/29 09:26:28;;;;;;;35.03;15.07;;;10.30;99.90;;;;;;5093982;28;20464;-79
2022/11/29 09:28:54;;;;;;;33.25;15.07;;;10.30;99.90;;;;;;5092221;28;20183;-78
2022/11/29 09:31:20;;;;;;;35.92;14.82;;;10.30;99.90;;;;;;5088882;28;20279;-82
2022/11/29 09:33:47;;;;;;;37.13;15.40;;;10.30;99.90;;;;;;5095344;28;20214;-81
2022/11/29 09:36:15;;;;;;;30.93;14.97;;;10.30;99.90;;;;;;5091540;28;20177;-82
2022/11/29 09:38:43;;;;;;;33.08;15.48;;;10.30;99.90;;;;;;5093549;28;20180;-78
2022/11/29 09:41:15;;;;;;;30.92;14.68;;;10.40;99.90;;;;;;5056652;28;20212;-78
2022/11/29 09:44:07;;;;;;;36.72;16.00;;;10.30;99.90;;;;;;5060067;28;20172;-78
2022/11/29 09:47:00;;;;;;;29.13;14.10;;;10.30;99.90;;;;;;5077831;28;20204;-80
2022/11/29 09:49:52;;;;;;;31.50;14.00;;;10.30;99.90;;;;;;5096357;28;20184;-81
2022/11/29 09:52:23;;;;;;;37.07;15.03;;;10.30;99.90;;;;;;5094494;28;20204;-80
2022/11/29 09:54:54;;;;;;;32.27;14.17;;;10.30;99.90;;;;;;5062567;28;20177;-76
2022/11/29 09:57:22;;;;;;;38.30;15.07;;;10.30;99.90;;;;;;5092890;28;20168;-78
2022/11/29 09:59:55;;;;;;;36.25;15.40;;;10.30;99.90;;;;;;5058043;28;20204;-84
2022/11/29 10:02:46;;;;;;;32.92;14.60;;;10.30;99.90;;;;;;5060293;28;20196;-85
2022/11/29 10:05:24;;;;;;;31.83;14.27;;;10.30;99.90;;;;;;5063801;28;20189;-84
2022/11/29 10:08:02;;;;;;;31.85;14.07;;;10.30;99.90;;;;;;5061063;28;20176;-83
2022/11/29 10:10:40;;;;;;;34.83;15.18;;;10.30;99.90;;;;;;5077555;28;20203;-83
2022/11/29 10:13:44;;;;;;;35.83;16.25;;;10.30;99.90;;;;;;5056373;28;20172;-81
2022/11/29 10:16:33;;;;;;;30.60;13.75;;;10.30;99.90;;;;;;5060441;28;20199;-83
2022/11/29 10:19:08;;;;;;;37.67;15.15;;;10.30;99.90;;;;;;5051582;28;21127;-84
2022/11/29 10:21:44;;;;;;;37.08;15.30;;;10.40;99.90;;;;;;5061443;28;20182;-83
2022/11/29 10:24:19;;;;;;;36.45;15.32;;;10.40;99.90;;;;;;5065561;28;20183;-83
2022/11/29 10:26:45;;;;;;;36.10;15.93;;;10.40;99.90;;;;;;5091318;28;20504;-83
2022/11/29 10:29:15;;;;;;;38.90;16.50;;;10.30;99.90;;;;;;5088792;28;20215;-80
2022/11/29 10:31:45;;;;;;;35.92;14.88;;;10.40;99.90;;;;;;5089183;28;20235;-81
2022/11/29 10:34:20;;;;;;;30.00;14.00;;;10.40;99.90;;;;;;5060093;28;20200;-77
2022/11/29 10:37:01;;;;;;;35.65;14.15;;;10.40;99.90;;;;;;5060698;28;20175;-82
2022/11/29 10:39:41;;;;;;;34.30;14.77;;;10.40;99.90;;;;;;5058690;28;20184;-79
2022/11/29 10:45:04;;;;;;;31.17;14.00;;;10.40;99.90;;;;;;5076014;28;20218;-82
2022/11/29 10:47:30;;;;;;;36.70;16.20;;;10.40;99.90;;;;;;5057529;28;20180;-83
2022/11/29 10:49:56;;;;;;;35.05;14.85;;;10.40;99.90;;;;;;5093334;28;20177;-80
2022/11/29 10:52:23;;;;;;;31.50;14.00;;;10.50;99.90;;;;;;5091920;28;20206;-83
2022/11/29 10:54:54;;;;;;;34.28;14.77;;;10.40;99.90;;;;;;5060638;28;20204;-79
2022/11/29 10:57:21;;;;;;;34.25;14.15;;;10.40;99.90;;;;;;5048882;28;20185;-77
2022/11/29 11:00:14;;;;;;;35.70;14.55;;;10.40;99.90;;;;;;5056394;28;20211;-80
2022/11/29 11:02:40;;;;;;;31.65;14.40;;;10.40;99.90;;;;;;5057082;28;20196;-85
2022/11/29 11:05:18;;;;;;;38.92;15.15;;;10.50;99.90;;;;;;5091010;28;20207;-80
2022/11/29 11:07:46;;;;;;;38.60;15.38;;;10.50;99.90;;;;;;5058448;28;20172;-82
2022/11/29 11:10:26;;;;;;;35.50;15.25;;;10.50;99.90;;;;;;5093718;28;20176;-82
2022/11/29 11:13:08;;;;;;;39.10;16.65;;;10.50;99.90;;;;;;5057824;28;20222;-76
2022/11/29 11:15:37;;;;;;;37.22;15.23;;;10.60;99.90;;;;;;5064230;28;20219;-82
2022/11/29 11:18:08;;;;;;;36.08;14.90;;;10.60;99.90;;;;;;5100188;28;20210;-84
2022/11/29 11:20:38;;;;;;;31.80;14.43;;;10.60;99.90;;;;;;5090651;28;20196;-84
2022/11/29 11:23:27;;;;;;;30.73;14.90;;;10.60;99.90;;;;;;5059420;28;21152;-81
2022/11/29 11:26:13;;;;;;;33.97;13.35;;;10.70;99.90;;;;;;5062100;28;20192;-78
2022/11/29 11:29:02;;;;;;;33.67;14.55;;;10.70;99.90;;;;;;5061250;28;20176;-79
2022/11/29 11:31:38;;;;;;;27.45;13.80;;;10.70;99.90;;;;;;5057775;28;20188;-79
2022/11/29 11:34:38;;;;;;;26.63;13.30;;;10.70;99.90;;;;;;5091591;28;20267;-77
2022/11/29 11:37:25;;;;;;;26.77;11.98;;;10.70;99.90;;;;;;5063947;28;20180;-79
2022/11/29 11:39:56;;;;;;;24.92;11.50;;;10.70;99.90;;;;;;5058290;28;20180;-80
2022/11/29 11:42:36;;;;;;;25.77;12.48;;;10.70;99.90;;;;;;5060089;28;20196;-77
2022/11/29 11:45:03;;;;;;;30.10;13.77;;;10.80;99.90;;;;;;5060826;28;20207;-79
2022/11/29 11:47:31;;;;;;;25.35;13.50;;;10.80;99.90;;;;;;5055117;28;20377;-79
2022/11/29 11:50:03;;;;;;;33.28;13.57;;;10.80;99.90;;;;;;5091558;28;20252;-78
2022/11/29 11:52:43;;;;;;;29.90;13.15;;;10.80;99.90;;;;;;5053569;28;20179;-78
2022/11/29 11:55:31;;;;;;;27.10;12.82;;;10.80;99.90;;;;;;5055964;28;20188;-78
2022/11/29 11:57:56;;;;;;;26.27;12.15;;;10.80;99.90;;;;;;5063096;28;20188;-78
2022/11/29 12:00:51;;;;;;;26.42;12.55;;;10.80;99.90;;;;;;5062654;28;20190;-80
2022/11/29 12:03:23;;;;;;;23.38;11.45;;;10.80;99.90;;;;;;5087448;28;20184;-78
2022/11/29 12:05:53;;;;;;;28.33;13.43;;;10.80;99.90;;;;;;5056281;28;20253;-75
2022/11/29 12:08:23;;;;;;;27.35;12.10;;;10.80;99.90;;;;;;5056999;28;20176;-77
2022/11/29 12:10:54;;;;;;;26.42;12.10;;;10.80;99.90;;;;;;5055120;28;20169;-77
2022/11/29 12:13:25;;;;;;;22.67;12.25;;;10.80;99.90;;;;;;5059463;28;20201;-81
2022/11/29 12:15:52;;;;;;;30.17;13.63;;;10.80;99.90;;;;;;5057995;28;20173;-79
2022/11/29 12:18:23;;;;;;;27.92;12.50;;;10.90;99.90;;;;;;5091471;28;20191;-79
2022/11/29 12:21:02;;;;;;;25.92;12.68;;;10.90;99.90;;;;;;5088086;28;20184;-79
2022/11/29 12:23:52;;;;;;;24.02;12.82;;;10.90;99.90;;;;;;5090286;28;20177;-79
2022/11/29 12:26:29;;;;;;;24.17;12.05;;;11.00;99.90;;;;;;5091078;28;20334;-80
2022/11/29 12:28:55;;;;;;;26.55;12.88;;;11.00;99.90;;;;;;5056532;28;20187;-78
2022/11/29 12:31:23;;;;;;;24.00;12.60;;;11.00;99.90;;;;;;5093718;28;20164;-79
2022/11/29 12:34:00;;;;;;;26.52;13.10;;;11.10;99.90;;;;;;5090303;28;20211;-82
2022/11/29 12:36:48;;;;;;;23.65;12.25;;;11.10;99.90;;;;;;5056884;28;20181;-81
2022/11/29 12:39:25;;;;;;;23.52;11.88;;;11.20;99.90;;;;;;5091645;28;20180;-82
2022/11/29 12:42:11;;;;;;;29.83;14.85;;;11.20;99.90;;;;;;5097945;28;20243;-80
2022/11/29 12:44:55;;;;;;;26.40;13.77;;;11.30;99.90;;;;;;5092983;28;20277;-80
2022/11/29 12:47:45;;;;;;;27.73;13.32;;;11.30;99.90;;;;;;5094415;28;20189;-81
2022/11/29 12:50:26;;;;;;;26.27;12.85;;;11.40;99.90;;;;;;5063883;28;20208;-81
2022/11/29 12:53:20;;;;;;;23.45;12.10;;;11.40;99.90;;;;;;5077709;28;20179;-81
2022/11/29 12:56:19;;;;;;;22.10;11.23;;;11.40;99.90;;;;;;5058226;28;20181;-82
2022/11/29 12:59:21;;;;;;;22.20;11.63;;;11.40;99.90;;;;;;5093433;28;20181;-80
2022/11/29 13:01:47;;;;;;;22.70;11.32;;;11.40;99.90;;;;;;5060652;28;20172;-82
2022/11/29 13:04:18;;;;;;;26.45;13.45;;;11.40;99.90;;;;;;5063627;28;20179;-82
2022/11/29 13:07:14;;;;;;;25.23;12.15;;;11.40;99.90;;;;;;5076276;28;20196;-86
2022/11/29 13:10:10;;;;;;;22.63;11.73;;;11.40;99.90;;;;;;5061335;28;20189;-78
2022/11/29 13:13:09;;;;;;;18.73;11.13;;;11.30;99.90;;;;;;5065256;28;20196;-80
2022/11/29 13:15:49;;;;;;;22.77;11.20;;;11.30;99.90;;;;;;5060171;28;20180;-81
2022/11/29 13:18:49;;;;;;;19.98;10.95;;;11.30;99.90;;;;;;5067145;28;20226;-83
2022/11/29 13:21:30;;;;;;;19.13;10.90;;;11.30;99.90;;;;;;5105280;28;20186;-82
2022/11/29 13:24:08;;;;;;;17.52;9.82;;;11.20;99.90;;;;;;5063664;28;20184;-81
2022/11/29 13:26:35;;;;;;;16.92;9.80;;;11.20;99.90;;;;;;5060719;28;20200;-84
2022/11/29 13:29:02;;;;;;;16.25;9.73;;;11.10;99.90;;;;;;5093618;28;20172;-82
2022/11/29 13:31:29;;;;;;;16.27;9.23;;;11.10;99.90;;;;;;5066674;28;20196;-83
2022/11/29 13:34:20;;;;;;;21.08;10.75;;;11.00;99.90;;;;;;5092679;28;20172;-83
2022/11/29 13:37:11;;;;;;;17.50;9.90;;;11.00;99.90;;;;;;5057566;28;20188;-81